Time;durP1;ratioP1;P1;durP2;ratioP2;P2;SDS_P1;SDS_P2;PMS_P1;PMS_P2;Temp;Humidity;BMP_temperature;BMP_pressure;BME280_temperature;BME280_humidity;BME280_pressure;Samples;Min_cycle;Max_cycle;Signal;HPM_P1;HPM_P2
2023/09/21 00:01:06;;;;;;;5.13;2.20;;;17.40;99.90;;;;;;5072810;28;20063;-75
2023/09/21 00:03:36;;;;;;;5.97;2.57;;;17.50;99.90;;;;;;5055267;28;20044;-75
2023/09/21 00:06:03;;;;;;;5.33;2.30;;;17.50;99.90;;;;;;5072630;28;20051;-75
2023/09/21 00:08:30;;;;;;;6.70;2.77;;;17.50;99.90;;;;;;5071678;28;20048;-75
2023/09/21 00:10:57;;;;;;;4.83;2.20;;;17.50;99.90;;;;;;5072592;28;20047;-75
2023/09/21 00:13:27;;;;;;;5.93;2.23;;;17.60;99.90;;;;;;5074970;28;20052;-75
2023/09/21 00:15:56;;;;;;;6.60;2.60;;;17.50;99.90;;;;;;5076074;28;20051;-75
2023/09/21 00:18:23;;;;;;;5.50;2.40;;;17.60;99.90;;;;;;5076001;28;20507;-75
2023/09/21 00:20:55;;;;;;;4.23;2.37;;;17.60;99.90;;;;;;5058342;28;20055;-75
2023/09/21 00:23:24;;;;;;;7.17;2.73;;;17.60;99.90;;;;;;5075349;28;20131;-75
2023/09/21 00:25:55;;;;;;;5.27;2.13;;;17.60;99.90;;;;;;5075012;28;20040;-75
2023/09/21 00:28:21;;;;;;;4.27;2.00;;;17.60;99.90;;;;;;5075076;28;20036;-67
2023/09/21 00:30:49;;;;;;;5.70;2.53;;;17.60;99.90;;;;;;5076384;28;20380;-66
2023/09/21 00:33:15;;;;;;;5.03;2.30;;;17.70;99.90;;;;;;5074914;28;20055;-65
2023/09/21 00:35:40;;;;;;;7.37;2.47;;;17.60;99.90;;;;;;5076629;28;20083;-65
2023/09/21 00:38:10;;;;;;;6.57;2.43;;;17.70;99.90;;;;;;5075751;28;20049;-65
2023/09/21 00:40:39;;;;;;;5.70;2.30;;;17.70;99.90;;;;;;5075623;28;20048;-65
2023/09/21 00:43:07;;;;;;;5.67;2.57;;;17.70;99.90;;;;;;5075608;28;20041;-64
2023/09/21 00:45:37;;;;;;;5.23;2.50;;;17.70;99.90;;;;;;5075508;28;20492;-64
2023/09/21 00:48:13;;;;;;;5.53;2.20;;;17.70;99.90;;;;;;5076277;28;20076;-64
2023/09/21 00:50:44;;;;;;;6.30;2.37;;;17.70;99.90;;;;;;5075901;28;20412;-64
2023/09/21 00:53:13;;;;;;;6.40;2.30;;;17.70;99.90;;;;;;5075782;28;20051;-65
2023/09/21 00:55:40;;;;;;;6.80;2.67;;;17.70;99.90;;;;;;5075560;28;20049;-64
2023/09/21 00:58:07;;;;;;;7.37;2.33;;;17.80;99.90;;;;;;5075509;28;20137;-65
2023/09/21 01:00:34;;;;;;;5.27;2.77;;;17.80;99.90;;;;;;5074918;28;20587;-65
2023/09/21 01:03:07;;;;;;;8.90;3.03;;;17.80;99.90;;;;;;5075336;28;20055;-65
2023/09/21 01:05:36;;;;;;;4.80;2.30;;;17.80;99.90;;;;;;5075300;28;20047;-65
2023/09/21 01:08:05;;;;;;;7.27;2.50;;;17.80;99.90;;;;;;5075053;28;20048;-65
2023/09/21 01:10:33;;;;;;;6.77;2.37;;;17.90;99.90;;;;;;5075394;28;20469;-65
2023/09/21 01:12:59;;;;;;;7.63;2.50;;;17.90;99.90;;;;;;5075928;28;20389;-65
2023/09/21 01:15:24;;;;;;;5.40;2.30;;;17.90;99.90;;;;;;5073881;28;20057;-64
2023/09/21 01:17:50;;;;;;;6.83;3.00;;;17.80;99.90;;;;;;5075092;28;20040;-64
2023/09/21 01:22:49;;;;;;;7.40;2.20;;;17.80;99.90;;;;;;5074631;28;20052;-64
2023/09/21 01:25:15;;;;;;;6.57;2.23;;;17.80;99.90;;;;;;5075688;28;20045;-64
2023/09/21 01:27:42;;;;;;;7.13;2.27;;;17.90;99.90;;;;;;5074577;28;20566;-64
2023/09/21 01:30:11;;;;;;;8.80;2.83;;;17.90;99.90;;;;;;5073820;28;20127;-64
2023/09/21 01:32:39;;;;;;;9.33;3.03;;;18.00;99.90;;;;;;5074806;28;20048;-64
2023/09/21 01:35:07;;;;;;;5.70;2.27;;;18.00;99.90;;;;;;5074924;28;20063;-64
2023/09/21 01:37:32;;;;;;;6.23;2.90;;;17.90;99.90;;;;;;5074927;28;20063;-64
2023/09/21 01:39:58;;;;;;;7.10;2.40;;;17.90;99.90;;;;;;5075376;28;20049;-65
2023/09/21 01:42:25;;;;;;;6.27;2.40;;;17.90;99.90;;;;;;5074692;28;20056;-64
2023/09/21 01:44:51;;;;;;;5.30;2.43;;;17.90;99.90;;;;;;5074354;28;20048;-64
2023/09/21 01:47:18;;;;;;;5.87;2.70;;;17.90;99.90;;;;;;5074506;28;20040;-64
2023/09/21 01:49:44;;;;;;;6.90;2.33;;;17.90;99.90;;;;;;5074792;28;20048;-64
2023/09/21 01:52:10;;;;;;;6.77;2.70;;;17.90;99.90;;;;;;5074767;28;20049;-64
2023/09/21 01:54:36;;;;;;;5.60;2.40;;;17.90;99.90;;;;;;5074381;28;20082;-64
2023/09/21 01:57:07;;;;;;;9.97;2.80;;;17.90;99.90;;;;;;5074755;28;20062;-65
2023/09/21 01:59:33;;;;;;;5.80;2.43;;;17.80;99.90;;;;;;5074057;28;20078;-64
2023/09/21 02:01:59;;;;;;;5.27;2.60;;;17.90;99.90;;;;;;5074169;28;20064;-65
2023/09/21 02:04:24;;;;;;;7.43;2.60;;;17.80;99.90;;;;;;5074765;28;20420;-64
2023/09/21 02:06:50;;;;;;;6.47;2.60;;;17.80;99.90;;;;;;5073728;28;20044;-64
2023/09/21 02:09:16;;;;;;;4.77;2.37;;;17.80;99.90;;;;;;5074053;28;20052;-64
2023/09/21 02:11:44;;;;;;;5.57;2.60;;;17.80;99.90;;;;;;5074016;28;20476;-64
2023/09/21 02:14:11;;;;;;;4.70;2.40;;;17.80;99.90;;;;;;5073975;28;20045;-64
2023/09/21 02:16:38;;;;;;;6.23;2.20;;;17.70;99.90;;;;;;5074011;28;20170;-64
2023/09/21 02:19:03;;;;;;;8.17;2.60;;;17.70;99.90;;;;;;5074195;28;20048;-64
2023/09/21 02:21:29;;;;;;;5.40;2.50;;;17.70;99.90;;;;;;5074704;28;20420;-64
2023/09/21 02:23:55;;;;;;;5.10;2.30;;;17.60;99.90;;;;;;5074156;28;20170;-64
2023/09/21 02:26:21;;;;;;;4.43;2.00;;;17.60;99.90;;;;;;5073395;28;20481;-64
2023/09/21 02:28:48;;;;;;;6.70;2.70;;;17.70;99.90;;;;;;5073529;28;20045;-64
2023/09/21 02:31:14;;;;;;;6.23;2.03;;;17.70;99.90;;;;;;5073748;28;20448;-64
2023/09/21 02:33:42;;;;;;;7.63;2.70;;;17.70;99.90;;;;;;5073389;28;20044;-65
2023/09/21 02:36:19;;;;;;;5.27;2.57;;;17.70;99.90;;;;;;5073995;28;20051;-65
2023/09/21 02:38:46;;;;;;;5.07;2.30;;;17.70;99.90;;;;;;5074273;28;20048;-64
2023/09/21 02:41:12;;;;;;;6.53;2.47;;;17.70;99.90;;;;;;5072675;28;20082;-65
2023/09/21 02:43:40;;;;;;;8.83;2.40;;;17.70;99.90;;;;;;5073659;28;20070;-64
2023/09/21 02:46:06;;;;;;;5.37;2.50;;;17.70;99.90;;;;;;5073474;28;20045;-65
2023/09/21 02:48:33;;;;;;;5.23;2.43;;;17.70;99.90;;;;;;5073590;28;20362;-64
2023/09/21 02:51:02;;;;;;;5.43;2.20;;;17.70;99.90;;;;;;5073520;28;20481;-64
2023/09/21 02:53:28;;;;;;;4.00;2.30;;;17.70;99.90;;;;;;5073488;28;20131;-64
2023/09/21 02:55:54;;;;;;;7.23;2.33;;;17.70;99.90;;;;;;5073743;28;20132;-64
2023/09/21 02:58:19;;;;;;;6.43;2.50;;;17.70;99.90;;;;;;5073447;28;20082;-64
2023/09/21 03:00:46;;;;;;;4.73;2.20;;;17.80;99.90;;;;;;5074008;28;20056;-64
2023/09/21 03:03:14;;;;;;;5.30;2.33;;;17.80;99.90;;;;;;5072064;28;20084;-65
2023/09/21 03:05:41;;;;;;;6.60;2.30;;;17.80;99.90;;;;;;5073264;28;20047;-64
2023/09/21 03:08:17;;;;;;;4.33;2.20;;;17.80;99.90;;;;;;5073411;28;20049;-67
2023/09/21 03:10:47;;;;;;;5.57;2.27;;;17.80;99.90;;;;;;5074154;28;20041;-66
2023/09/21 03:13:18;;;;;;;5.13;2.20;;;17.70;99.90;;;;;;5074014;28;20052;-66
2023/09/21 03:15:48;;;;;;;6.37;2.63;;;17.70;99.90;;;;;;5073862;28;20048;-66
2023/09/21 03:18:14;;;;;;;5.43;2.30;;;17.70;99.90;;;;;;5072224;28;20059;-66
2023/09/21 03:20:40;;;;;;;6.07;2.30;;;17.70;99.90;;;;;;5073283;28;20048;-66
2023/09/21 03:23:10;;;;;;;5.83;2.20;;;17.70;99.90;;;;;;5073286;28;20164;-66
2023/09/21 03:25:41;;;;;;;5.30;2.20;;;17.80;99.90;;;;;;5072941;28;20049;-66
2023/09/21 03:28:15;;;;;;;6.17;2.20;;;17.80;99.90;;;;;;5073168;28;20047;-66
2023/09/21 03:30:41;;;;;;;6.80;2.43;;;17.80;99.90;;;;;;5074038;28;20068;-66
2023/09/21 03:33:09;;;;;;;6.17;2.10;;;17.80;99.90;;;;;;5073109;28;20048;-66
2023/09/21 03:35:37;;;;;;;5.40;2.10;;;17.80;99.90;;;;;;5073158;28;20052;-66
2023/09/21 03:38:06;;;;;;;4.43;2.20;;;17.80;99.90;;;;;;5073083;28;20088;-66
2023/09/21 03:40:35;;;;;;;5.07;2.20;;;17.80;99.90;;;;;;5073029;28;20055;-66
2023/09/21 03:43:01;;;;;;;4.83;2.30;;;17.90;99.90;;;;;;5073335;28;20114;-66
2023/09/21 03:45:27;;;;;;;5.17;2.23;;;17.80;99.90;;;;;;5073698;28;20526;-66
2023/09/21 03:47:53;;;;;;;4.60;2.03;;;17.90;99.90;;;;;;5076795;28;20041;-66
2023/09/21 03:50:19;;;;;;;4.93;2.10;;;17.90;99.90;;;;;;5076745;28;20131;-66
2023/09/21 03:52:47;;;;;;;6.20;2.10;;;17.90;99.90;;;;;;5076715;28;20049;-66
2023/09/21 03:55:16;;;;;;;4.77;2.07;;;17.90;99.90;;;;;;5076594;28;20052;-68
2023/09/21 03:57:46;;;;;;;5.03;1.90;;;17.90;99.90;;;;;;5076807;28;20489;-66
2023/09/21 04:00:31;;;;;;;5.13;2.33;;;18.00;99.90;;;;;;5076755;28;20062;-66
2023/09/21 04:03:00;;;;;;;7.45;2.53;;;18.00;99.90;;;;;;5077122;28;20441;-66
2023/09/21 04:05:31;;;;;;;6.10;2.13;;;18.00;99.90;;;;;;5076622;28;20045;-66
2023/09/21 04:07:57;;;;;;;5.60;2.40;;;18.00;99.90;;;;;;5077001;28;20052;-66
2023/09/21 04:10:23;;;;;;;4.43;2.33;;;18.00;99.90;;;;;;5075682;28;20437;-66
2023/09/21 04:12:55;;;;;;;5.10;2.30;;;18.00;99.90;;;;;;5076350;28;20136;-66
2023/09/21 04:15:25;;;;;;;4.47;2.27;;;17.90;99.90;;;;;;5076307;28;20063;-66
2023/09/21 04:17:52;;;;;;;6.27;2.70;;;18.00;99.90;;;;;;5076327;28;20060;-66
2023/09/21 04:20:18;;;;;;;6.80;2.30;;;17.90;99.90;;;;;;5075057;28;20185;-66
2023/09/21 04:22:45;;;;;;;5.03;2.27;;;17.90;99.90;;;;;;5076458;28;20045;-66
2023/09/21 04:25:14;;;;;;;8.43;2.40;;;18.00;99.90;;;;;;5076176;28;20044;-66
2023/09/21 04:27:50;;;;;;;5.73;2.40;;;18.00;99.90;;;;;;5075955;28;20257;-66
2023/09/21 04:30:17;;;;;;;4.60;2.23;;;17.90;99.90;;;;;;5075969;28;20131;-66
2023/09/21 04:32:46;;;;;;;5.53;2.20;;;17.90;99.90;;;;;;5075877;28;20054;-66
2023/09/21 04:35:18;;;;;;;4.40;2.27;;;17.90;99.90;;;;;;5075628;28;20488;-66
2023/09/21 04:37:48;;;;;;;5.80;2.30;;;17.90;99.90;;;;;;5075846;28;20043;-66
2023/09/21 04:40:14;;;;;;;6.80;2.60;;;17.90;99.90;;;;;;5075557;28;20427;-66
2023/09/21 04:42:42;;;;;;;4.43;2.10;;;17.80;99.90;;;;;;5076349;28;20049;-66
2023/09/21 04:45:10;;;;;;;6.57;2.40;;;17.90;99.90;;;;;;5076284;28;20055;-66
2023/09/21 04:47:45;;;;;;;5.93;2.77;;;17.80;99.90;;;;;;5076167;28;20098;-66
2023/09/21 04:50:12;;;;;;;5.20;2.65;;;17.80;99.90;;;;;;5076497;28;20083;-66
2023/09/21 04:52:38;;;;;;;5.43;2.30;;;17.80;99.90;;;;;;5075979;28;20052;-66
2023/09/21 04:55:05;;;;;;;6.83;2.53;;;17.70;99.90;;;;;;5075383;28;20439;-66
2023/09/21 04:57:31;;;;;;;5.47;2.13;;;17.70;99.90;;;;;;5074685;28;20041;-66
2023/09/21 04:59:58;;;;;;;6.10;2.60;;;17.70;99.90;;;;;;5075421;28;20125;-66
2023/09/21 05:02:24;;;;;;;4.43;2.20;;;17.70;99.90;;;;;;5075238;28;20550;-67
2023/09/21 05:04:50;;;;;;;4.83;2.03;;;17.70;99.90;;;;;;5075236;28;20048;-66
2023/09/21 05:07:19;;;;;;;5.70;2.20;;;17.60;99.90;;;;;;5075242;28;20051;-66
2023/09/21 05:09:46;;;;;;;5.80;2.17;;;17.60;99.90;;;;;;5075266;28;20051;-66
2023/09/21 05:12:16;;;;;;;4.57;2.13;;;17.70;99.90;;;;;;5075495;28;20066;-66
2023/09/21 05:14:42;;;;;;;5.03;2.30;;;17.60;99.90;;;;;;5075960;28;20045;-66
2023/09/21 05:17:07;;;;;;;6.40;2.73;;;17.60;99.90;;;;;;5075125;28;20134;-66
2023/09/21 05:19:33;;;;;;;5.97;2.43;;;17.60;99.90;;;;;;5074404;28;20130;-66
2023/09/21 05:22:00;;;;;;;4.80;2.30;;;17.60;99.90;;;;;;5075077;28;20504;-66
2023/09/21 05:24:26;;;;;;;7.83;2.30;;;17.60;99.90;;;;;;5074970;28;20052;-66
2023/09/21 05:26:53;;;;;;;5.63;2.60;;;17.60;99.90;;;;;;5075658;28;20040;-66
2023/09/21 05:29:20;;;;;;;6.53;2.30;;;17.60;99.90;;;;;;5075398;28;20041;-66
2023/09/21 05:31:47;;;;;;;5.37;2.60;;;17.60;99.90;;;;;;5074752;28;20505;-66
2023/09/21 05:34:13;;;;;;;4.13;2.10;;;17.60;99.90;;;;;;5075008;28;20118;-66
2023/09/21 05:36:39;;;;;;;5.27;2.20;;;17.60;99.90;;;;;;5074615;28;20469;-66
2023/09/21 05:39:05;;;;;;;6.70;2.20;;;17.70;99.90;;;;;;5074321;28;20511;-66
2023/09/21 05:41:31;;;;;;;4.23;2.63;;;17.70;99.90;;;;;;5074287;28;20493;-66
2023/09/21 05:43:57;;;;;;;6.20;2.47;;;17.70;99.90;;;;;;5074535;28;20048;-66
2023/09/21 05:46:23;;;;;;;4.87;2.53;;;17.70;99.90;;;;;;5074397;28;20044;-67
2023/09/21 05:48:49;;;;;;;6.50;2.33;;;17.70;99.90;;;;;;5075253;28;20072;-66
2023/09/21 05:51:15;;;;;;;4.73;2.30;;;17.80;99.90;;;;;;5075022;28;20075;-66
2023/09/21 05:53:41;;;;;;;7.60;2.30;;;17.80;99.90;;;;;;5074588;28;20056;-67
2023/09/21 05:56:07;;;;;;;5.97;2.37;;;17.80;99.90;;;;;;5074957;28;20048;-66
2023/09/21 05:58:32;;;;;;;5.23;2.53;;;17.80;99.90;;;;;;5074111;28;20050;-66
2023/09/21 06:01:01;;;;;;;4.60;2.03;;;17.80;99.90;;;;;;5074278;28;20215;-66
2023/09/21 06:03:28;;;;;;;5.13;2.40;;;17.70;99.90;;;;;;5074247;28;20045;-66
2023/09/21 06:05:54;;;;;;;6.20;2.70;;;17.60;99.90;;;;;;5074088;28;20045;-66
2023/09/21 06:08:20;;;;;;;6.23;2.40;;;17.60;99.90;;;;;;5074100;28;20488;-66
2023/09/21 06:10:46;;;;;;;5.70;2.50;;;17.60;99.90;;;;;;5073503;28;20480;-66
2023/09/21 06:13:12;;;;;;;8.20;2.80;;;17.60;99.90;;;;;;5073660;28;20045;-66
2023/09/21 06:15:48;;;;;;;5.63;2.40;;;17.50;99.90;;;;;;5073994;28;20547;-66
2023/09/21 06:18:14;;;;;;;5.87;2.50;;;17.50;99.90;;;;;;5073960;28;20131;-66
2023/09/21 06:20:44;;;;;;;6.03;2.57;;;17.40;99.90;;;;;;5073875;28;20048;-66
2023/09/21 06:23:09;;;;;;;5.70;2.60;;;17.40;99.90;;;;;;5072724;28;20048;-66
2023/09/21 06:25:36;;;;;;;7.53;2.97;;;17.40;99.90;;;;;;5074029;28;20063;-66
2023/09/21 06:28:02;;;;;;;5.87;2.43;;;17.40;99.90;;;;;;5073511;28;20598;-66
2023/09/21 06:30:28;;;;;;;6.97;3.03;;;17.30;99.90;;;;;;5072725;28;20048;-66
2023/09/21 06:32:55;;;;;;;5.30;2.33;;;17.30;99.90;;;;;;5072568;28;20053;-66
2023/09/21 06:35:24;;;;;;;3.77;2.10;;;17.40;99.90;;;;;;5074493;28;20186;-66
2023/09/21 06:37:56;;;;;;;5.47;2.30;;;17.40;99.90;;;;;;5073626;28;20492;-66
2023/09/21 06:40:24;;;;;;;6.40;2.60;;;17.30;99.90;;;;;;5073704;28;20051;-66
2023/09/21 06:42:50;;;;;;;5.63;2.37;;;17.30;99.90;;;;;;5073588;28;20060;-66
2023/09/21 06:45:16;;;;;;;5.87;2.60;;;17.30;99.90;;;;;;5074119;28;20044;-66
2023/09/21 06:47:42;;;;;;;5.67;2.30;;;17.30;99.90;;;;;;5073462;28;20044;-66
2023/09/21 06:50:13;;;;;;;6.87;2.57;;;17.30;99.90;;;;;;5073581;28;20043;-65
2023/09/21 06:52:40;;;;;;;4.87;2.37;;;17.30;99.90;;;;;;5073454;28;20052;-66
2023/09/21 06:55:06;;;;;;;5.77;2.60;;;17.30;99.90;;;;;;5074337;28;20475;-66
2023/09/21 06:57:34;;;;;;;4.97;2.73;;;17.30;99.90;;;;;;5074021;28;20052;-66
2023/09/21 07:00:01;;;;;;;6.07;2.80;;;17.30;99.90;;;;;;5071883;28;20061;-67
2023/09/21 07:02:27;;;;;;;4.57;2.67;;;17.30;99.90;;;;;;5073147;28;20481;-65
2023/09/21 07:04:53;;;;;;;6.30;3.07;;;17.30;99.90;;;;;;5073417;28;20090;-66
2023/09/21 07:07:20;;;;;;;13.63;3.13;;;17.30;99.90;;;;;;5073411;28;20389;-65
2023/09/21 07:09:46;;;;;;;6.33;2.80;;;17.30;99.90;;;;;;5074211;28;20076;-66
2023/09/21 07:12:12;;;;;;;6.73;2.80;;;17.30;99.90;;;;;;5072019;28;20519;-66
2023/09/21 07:14:39;;;;;;;6.83;2.70;;;17.30;99.90;;;;;;5074182;28;20102;-68
2023/09/21 07:17:05;;;;;;;7.27;3.00;;;17.30;99.90;;;;;;5073255;28;20075;-66
2023/09/21 07:19:31;;;;;;;6.13;2.80;;;17.30;99.90;;;;;;5073292;28;20051;-66
2023/09/21 07:21:58;;;;;;;5.27;2.37;;;17.20;99.90;;;;;;5076614;28;20091;-66
2023/09/21 07:24:24;;;;;;;6.33;3.00;;;17.30;99.90;;;;;;5077373;28;20442;-66
2023/09/21 07:26:49;;;;;;;3.83;2.47;;;17.20;99.90;;;;;;5075958;28;20049;-66
2023/09/21 07:29:17;;;;;;;6.13;3.03;;;17.20;99.90;;;;;;5077695;28;20178;-66
2023/09/21 07:31:43;;;;;;;5.90;3.10;;;17.30;99.90;;;;;;5077216;28;20044;-66
2023/09/21 07:34:09;;;;;;;5.37;2.83;;;17.20;99.90;;;;;;5077126;28;20044;-66
2023/09/21 07:36:37;;;;;;;5.67;3.10;;;17.20;99.90;;;;;;5077077;28;20036;-66
2023/09/21 07:39:05;;;;;;;5.90;2.80;;;17.30;99.90;;;;;;5075994;28;20059;-66
2023/09/21 07:41:31;;;;;;;5.80;2.70;;;17.20;99.90;;;;;;5076947;28;20049;-65
2023/09/21 07:43:57;;;;;;;7.37;3.40;;;17.20;99.90;;;;;;5076911;28;20059;-65
2023/09/21 07:46:23;;;;;;;8.00;3.13;;;17.20;99.90;;;;;;5058864;28;20036;-65
2023/09/21 07:48:51;;;;;;;4.20;2.20;;;17.20;99.90;;;;;;5077294;28;20052;-65
2023/09/21 07:51:21;;;;;;;3.60;1.90;;;17.10;99.90;;;;;;5076761;28;20396;-65
2023/09/21 07:53:46;;;;;;;4.07;1.67;;;17.00;99.90;;;;;;5077152;28;20044;-66
2023/09/21 07:56:13;;;;;;;3.10;1.30;;;16.90;99.90;;;;;;5076128;28;20098;-66
2023/09/21 07:58:39;;;;;;;2.93;1.40;;;16.80;99.90;;;;;;5076413;28;20124;-65
2023/09/21 08:01:05;;;;;;;3.77;1.50;;;16.80;99.90;;;;;;5077134;28;20127;-65
2023/09/21 08:03:31;;;;;;;2.60;1.13;;;16.70;99.90;;;;;;5076558;28;20040;-65
2023/09/21 08:05:59;;;;;;;2.53;1.17;;;16.60;99.90;;;;;;5076418;28;20503;-65
2023/09/21 08:08:25;;;;;;;2.63;1.30;;;16.60;99.90;;;;;;5075784;28;20048;-65
2023/09/21 08:10:56;;;;;;;2.77;1.30;;;16.60;99.90;;;;;;5076495;28;20045;-65
2023/09/21 08:13:25;;;;;;;3.47;1.27;;;16.50;99.90;;;;;;5076160;28;20346;-65
2023/09/21 08:15:52;;;;;;;1.60;1.00;;;16.50;99.90;;;;;;5075283;28;20118;-66
2023/09/21 08:18:18;;;;;;;2.60;1.30;;;16.50;99.90;;;;;;5076327;28;20176;-65
2023/09/21 08:20:44;;;;;;;3.97;1.47;;;16.50;99.90;;;;;;5075342;28;20048;-65
2023/09/21 08:23:10;;;;;;;3.80;1.47;;;16.50;99.90;;;;;;5076089;28;20082;-65
2023/09/21 08:25:37;;;;;;;3.80;1.40;;;16.50;99.90;;;;;;5076004;28;20052;-65
2023/09/21 08:28:04;;;;;;;3.87;1.33;;;16.60;99.90;;;;;;5074740;28;20399;-65
2023/09/21 08:30:30;;;;;;;5.03;1.50;;;16.60;99.90;;;;;;5076259;28;20469;-67
2023/09/21 08:32:57;;;;;;;5.70;1.60;;;16.60;99.90;;;;;;5074866;28;20048;-66
2023/09/21 08:35:23;;;;;;;4.87;1.40;;;16.60;99.90;;;;;;5076524;28;20051;-67
2023/09/21 08:37:50;;;;;;;4.27;1.67;;;16.50;99.90;;;;;;5075898;28;20074;-69
2023/09/21 08:40:17;;;;;;;3.43;1.37;;;16.50;99.90;;;;;;5075762;28;20563;-67
2023/09/21 08:42:46;;;;;;;4.77;1.20;;;16.50;99.90;;;;;;5075138;28;20412;-66
2023/09/21 08:45:13;;;;;;;2.60;1.17;;;16.40;99.90;;;;;;5075847;28;20150;-67
2023/09/21 08:47:40;;;;;;;2.90;1.13;;;16.40;99.90;;;;;;5075731;28;20039;-67
2023/09/21 08:50:09;;;;;;;3.60;1.50;;;16.40;99.90;;;;;;5075771;28;20040;-67
2023/09/21 08:52:36;;;;;;;2.97;1.10;;;16.40;99.90;;;;;;5076101;28;20118;-67
2023/09/21 08:55:02;;;;;;;4.57;1.30;;;16.40;99.90;;;;;;5075491;28;20048;-67
2023/09/21 08:57:30;;;;;;;2.63;1.37;;;16.40;99.90;;;;;;5075469;28;20044;-66
2023/09/21 09:00:00;;;;;;;2.87;1.37;;;16.30;99.90;;;;;;5075477;28;20117;-67
2023/09/21 09:02:27;;;;;;;3.40;1.43;;;16.40;99.90;;;;;;5075400;28;20181;-66
2023/09/21 09:04:54;;;;;;;2.77;1.10;;;16.40;99.90;;;;;;5075934;28;20056;-68
2023/09/21 09:07:20;;;;;;;3.93;1.60;;;16.40;99.90;;;;;;5075160;28;20052;-66
2023/09/21 09:09:46;;;;;;;2.73;1.37;;;16.40;99.90;;;;;;5076059;28;20056;-67
2023/09/21 09:12:24;;;;;;;4.67;1.60;;;16.40;99.90;;;;;;5073931;28;20044;-67
2023/09/21 09:14:51;;;;;;;2.87;1.13;;;16.40;99.90;;;;;;5075160;28;20059;-67
2023/09/21 09:17:17;;;;;;;2.50;1.30;;;16.40;99.90;;;;;;5074618;28;20102;-66
2023/09/21 09:19:46;;;;;;;3.50;1.43;;;16.50;99.90;;;;;;5075157;28;20041;-66
2023/09/21 09:22:13;;;;;;;3.83;1.40;;;16.50;99.90;;;;;;5075047;28;20044;-66
2023/09/21 09:24:38;;;;;;;4.73;1.37;;;16.50;99.90;;;;;;5075061;28;20040;-66
2023/09/21 09:27:04;;;;;;;3.63;1.30;;;16.50;99.90;;;;;;5072708;28;20055;-67
2023/09/21 09:29:30;;;;;;;2.73;1.03;;;16.50;99.90;;;;;;5074973;28;20088;-66
2023/09/21 09:31:56;;;;;;;4.80;1.50;;;16.60;99.90;;;;;;5074915;28;20493;-72
2023/09/21 09:34:22;;;;;;;2.20;1.30;;;16.50;99.90;;;;;;5074474;28;20045;-65
2023/09/21 09:36:51;;;;;;;4.13;1.63;;;16.50;99.90;;;;;;5074479;28;20489;-65
2023/09/21 09:39:23;;;;;;;3.20;1.27;;;16.50;99.90;;;;;;5074871;28;20131;-65
2023/09/21 09:41:50;;;;;;;6.03;1.50;;;16.40;99.90;;;;;;5074844;28;20040;-68
2023/09/21 09:44:22;;;;;;;1.93;1.10;;;16.40;99.90;;;;;;5074395;28;20044;-65
2023/09/21 09:46:52;;;;;;;4.83;1.50;;;16.40;99.90;;;;;;5073381;28;20040;-64
2023/09/21 09:49:25;;;;;;;2.67;1.27;;;16.50;99.90;;;;;;5075172;28;20110;-64
2023/09/21 09:51:53;;;;;;;3.63;1.30;;;16.40;99.90;;;;;;5074593;28;20122;-64
2023/09/21 09:54:21;;;;;;;2.53;1.40;;;16.30;99.90;;;;;;5074967;28;20143;-65
2023/09/21 09:56:51;;;;;;;4.03;1.70;;;16.30;99.90;;;;;;5074430;28;20044;-65
2023/09/21 09:59:19;;;;;;;3.73;1.43;;;16.30;99.90;;;;;;5074070;28;20458;-65
2023/09/21 10:01:46;;;;;;;3.90;1.67;;;16.30;99.90;;;;;;5074872;28;20048;-65
2023/09/21 10:04:14;;;;;;;3.47;1.47;;;16.40;99.90;;;;;;5074251;28;20044;-65
2023/09/21 10:06:41;;;;;;;3.30;1.20;;;16.40;99.90;;;;;;5073560;28;20040;-65
2023/09/21 10:09:13;;;;;;;4.30;1.30;;;16.40;99.90;;;;;;5074740;28;20045;-65
2023/09/21 10:11:46;;;;;;;4.27;1.50;;;16.40;99.90;;;;;;5074426;28;20098;-65
2023/09/21 10:14:17;;;;;;;4.70;1.40;;;16.40;99.90;;;;;;5074890;28;20082;-65
2023/09/21 10:16:54;;;;;;;2.23;1.10;;;16.30;99.90;;;;;;5074599;28;20105;-65
2023/09/21 10:19:28;;;;;;;3.47;1.13;;;16.40;99.90;;;;;;5073087;28;20048;-68
2023/09/21 10:21:56;;;;;;;2.88;1.25;;;16.40;99.90;;;;;;5074817;28;20048;-65
2023/09/21 10:24:26;;;;;;;3.73;1.30;;;16.50;99.90;;;;;;5073574;28;20052;-65
2023/09/21 10:26:53;;;;;;;3.10;1.30;;;16.50;99.90;;;;;;5073860;28;20052;-64
2023/09/21 10:29:21;;;;;;;2.90;1.30;;;16.50;99.90;;;;;;5073838;28;20481;-65
2023/09/21 10:31:54;;;;;;;3.67;1.27;;;16.60;99.90;;;;;;5073884;28;20048;-64
2023/09/21 10:34:23;;;;;;;2.30;1.30;;;16.70;99.90;;;;;;5073834;28;20056;-64
2023/09/21 10:36:51;;;;;;;3.63;1.40;;;16.60;99.90;;;;;;5074348;28;20045;-64
2023/09/21 10:39:24;;;;;;;2.87;1.53;;;16.70;99.90;;;;;;5073743;28;20049;-64
2023/09/21 10:41:52;;;;;;;4.43;1.53;;;16.70;99.90;;;;;;5074303;28;20048;-64
2023/09/21 10:44:56;;;;;;;2.83;1.40;;;16.80;99.90;;;;;;5073641;28;20135;-64
2023/09/21 10:47:48;;;;;;;2.37;1.30;;;16.80;99.90;;;;;;5074070;28;20048;-64
2023/09/21 10:50:23;;;;;;;2.80;1.30;;;16.70;99.90;;;;;;5074214;28;20056;-64
2023/09/21 10:52:51;;;;;;;2.67;1.30;;;16.70;99.90;;;;;;5073635;28;20044;-65
2023/09/21 10:55:18;;;;;;;3.20;1.40;;;16.80;99.90;;;;;;5072584;28;20047;-65
2023/09/21 10:57:46;;;;;;;2.97;1.40;;;16.80;99.90;;;;;;5073523;28;20084;-64
2023/09/21 11:00:17;;;;;;;2.73;1.10;;;16.80;99.90;;;;;;5073495;28;20063;-65
2023/09/21 11:02:47;;;;;;;2.47;1.37;;;16.80;99.90;;;;;;5073440;28;20056;-65
2023/09/21 11:05:17;;;;;;;2.80;1.23;;;16.70;99.90;;;;;;5072491;28;20400;-65
2023/09/21 11:07:48;;;;;;;2.77;1.17;;;16.70;99.90;;;;;;5073330;28;20047;-65
2023/09/21 11:10:14;;;;;;;2.60;1.27;;;16.60;99.90;;;;;;5072958;28;20381;-65
2023/09/21 11:12:44;;;;;;;3.03;1.50;;;16.60;99.90;;;;;;5073327;28;20054;-66
2023/09/21 11:15:16;;;;;;;2.13;1.20;;;16.60;99.90;;;;;;5073278;28;20449;-66
2023/09/21 11:17:44;;;;;;;1.93;1.10;;;16.60;99.90;;;;;;5073772;28;20044;-65
2023/09/21 11:20:15;;;;;;;2.67;1.20;;;16.70;99.90;;;;;;5074133;28;20140;-67
2023/09/21 11:22:45;;;;;;;2.60;1.23;;;16.70;99.90;;;;;;5073885;28;20066;-66
2023/09/21 11:25:12;;;;;;;2.60;1.27;;;16.80;99.90;;;;;;5073001;28;20043;-66
2023/09/21 11:27:40;;;;;;;2.70;1.50;;;16.80;99.90;;;;;;5071727;28;20489;-65
2023/09/21 11:30:10;;;;;;;2.10;1.10;;;16.90;99.90;;;;;;5073173;28;20090;-65
2023/09/21 11:32:57;;;;;;;2.50;1.27;;;16.80;99.90;;;;;;5073552;28;20114;-65
2023/09/21 11:35:23;;;;;;;2.70;1.17;;;16.70;99.90;;;;;;5072004;28;20044;-65
2023/09/21 11:37:50;;;;;;;3.50;1.30;;;16.70;99.90;;;;;;5073155;28;20089;-64
2023/09/21 11:40:26;;;;;;;4.63;1.30;;;16.60;99.90;;;;;;5073155;28;20123;-65
2023/09/21 11:42:59;;;;;;;2.93;1.40;;;16.50;99.90;;;;;;5072719;28;20392;-65
2023/09/21 11:45:26;;;;;;;2.40;1.20;;;16.50;99.90;;;;;;5072997;28;20101;-64
2023/09/21 11:47:57;;;;;;;2.03;1.20;;;16.50;99.90;;;;;;5072567;28;20041;-65
2023/09/21 11:50:25;;;;;;;4.20;1.17;;;16.50;99.90;;;;;;5072893;28;20048;-65
2023/09/21 11:52:54;;;;;;;2.83;1.37;;;16.50;99.90;;;;;;5073131;28;20051;-65
2023/09/21 11:55:21;;;;;;;3.43;1.67;;;16.50;99.90;;;;;;5072917;28;20059;-65
2023/09/21 11:57:49;;;;;;;2.97;1.30;;;16.50;99.90;;;;;;5073315;28;20063;-65
2023/09/21 12:00:26;;;;;;;3.70;1.50;;;16.60;99.90;;;;;;5072931;28;20056;-65
2023/09/21 12:02:58;;;;;;;3.37;1.50;;;16.70;99.90;;;;;;5073927;28;20044;-65
2023/09/21 12:05:25;;;;;;;2.30;1.43;;;16.70;99.90;;;;;;5072883;28;20048;-65
2023/09/21 12:07:51;;;;;;;2.63;1.30;;;16.80;99.90;;;;;;5075902;28;20052;-64
2023/09/21 12:10:16;;;;;;;3.20;1.30;;;16.80;99.90;;;;;;5076449;28;20040;-64
2023/09/21 12:12:42;;;;;;;2.77;1.37;;;16.90;99.90;;;;;;5076517;28;20052;-66
2023/09/21 12:15:12;;;;;;;3.20;1.63;;;17.00;99.90;;;;;;5076833;28;20080;-64
2023/09/21 12:17:38;;;;;;;3.90;1.53;;;17.10;99.90;;;;;;5076291;28;20486;-65
2023/09/21 12:20:11;;;;;;;2.80;1.37;;;17.20;99.90;;;;;;5076300;28;20080;-64
2023/09/21 12:22:38;;;;;;;3.60;1.67;;;17.20;99.90;;;;;;5076805;28;20098;-66
2023/09/21 12:25:06;;;;;;;3.40;1.67;;;17.30;99.90;;;;;;5076029;28;20048;-64
2023/09/21 12:27:32;;;;;;;3.07;1.50;;;17.30;99.90;;;;;;5074837;28;20132;-65
2023/09/21 12:29:58;;;;;;;2.67;1.47;;;17.40;99.90;;;;;;5076128;28;20127;-65
2023/09/21 12:32:24;;;;;;;3.47;1.57;;;17.40;99.90;;;;;;5076092;28;20048;-65
2023/09/21 12:34:51;;;;;;;2.77;1.50;;;17.40;99.90;;;;;;5075852;28;20048;-65
2023/09/21 12:37:18;;;;;;;3.20;1.37;;;17.40;99.90;;;;;;5076030;28;20119;-65
2023/09/21 12:39:44;;;;;;;3.33;1.30;;;17.40;99.90;;;;;;5076390;28;20121;-66
2023/09/21 12:42:11;;;;;;;2.30;1.30;;;17.40;99.90;;;;;;5075905;28;20056;-64
2023/09/21 12:44:37;;;;;;;2.57;1.40;;;17.30;99.90;;;;;;5075668;28;20056;-65
2023/09/21 12:47:04;;;;;;;2.87;1.27;;;17.20;99.90;;;;;;5075727;28;20067;-65
2023/09/21 12:49:29;;;;;;;2.80;1.27;;;17.10;99.90;;;;;;5075712;28;20052;-65
2023/09/21 12:51:55;;;;;;;3.43;1.50;;;17.00;99.90;;;;;;5075641;28;20477;-66
2023/09/21 12:54:21;;;;;;;2.83;1.30;;;16.90;99.90;;;;;;5075353;28;20045;-66